Terminal Aerodrome Forecast
Issued by NWS Jackson, MS

Home | Current Version | Previous Version | Text Only | Print | Product List | Glossary On
Versions: 1 2 3 4 5 6 7 8 9 10 11 12
000
FTUS44 KMEG 282300
TAFTUP
TAF
KTUP 282321Z 2900/2924 21004KT P6SM FEW060 FEW250
     FM290200 00000KT P6SM FEW250
      TEMPO 2911/2913 5SM BR
     FM291600 22006KT P6SM SCT060 SCT250=

USA.gov is the U.S. government's official web portal to all federal, state and local government web resources and services.